Time;durP1;ratioP1;P1;durP2;ratioP2;P2;SDS_P1;SDS_P2;PMS_P1;PMS_P2;Temp;Humidity;BMP_temperature;BMP_pressure;BME280_temperature;BME280_humidity;BME280_pressure;Samples;Min_cycle;Max_cycle;Signal;HPM_P1;HPM_P2
2024/01/06 00:01:58;;;;;;;6.50;4.40;;;4.30;99.90;;;;;;5043078;28;20475;-92
2024/01/06 00:04:37;;;;;;;6.50;5.37;;;4.10;99.90;;;;;;5024964;28;20524;-92
2024/01/06 00:30:42;;;;;;;12.00;4.70;;;3.90;99.90;;;;;;4956149;28;20515;-87
2024/01/06 00:33:21;;;;;;;8.57;4.17;;;4.10;99.90;;;;;;4991733;28;20537;-87
2024/01/06 00:36:02;;;;;;;13.70;4.93;;;4.20;99.90;;;;;;5043035;28;20567;-89
2024/01/06 00:38:32;;;;;;;7.87;4.03;;;4.20;99.90;;;;;;5021098;28;20475;-88
2024/01/06 00:41:05;;;;;;;10.20;5.50;;;4.30;99.90;;;;;;5051644;28;20480;-88
2024/01/06 00:43:32;;;;;;;6.13;4.90;;;4.40;99.90;;;;;;5051771;28;20514;-88
2024/01/06 00:46:19;;;;;;;;;;;;;;;;;;;;;
2024/01/06 00:48:55;;;;;;;8.00;4.30;;;4.50;99.90;;;;;;5045373;28;20484;-88
2024/01/06 00:51:27;;;;;;;10.03;4.90;;;4.60;99.90;;;;;;5048222;28;20479;-87
2024/01/06 00:56:36;;;;;;;11.60;5.33;;;4.80;99.90;;;;;;5040473;28;20558;-86
2024/01/06 00:59:05;;;;;;;9.30;5.87;;;4.80;99.90;;;;;;5050163;28;21128;-89
2024/01/06 01:32:33;;;;;;;20.43;5.33;;;4.60;99.90;;;;;;4981345;28;20461;-65
2024/01/06 01:35:00;;;;;;;14.03;5.60;;;4.70;99.90;;;;;;4990047;28;21058;-65
2024/01/06 01:37:27;;;;;;;21.83;6.10;;;4.70;99.90;;;;;;4986350;28;20960;-65
2024/01/06 01:39:54;;;;;;;12.43;5.40;;;4.80;99.90;;;;;;4971973;28;20986;-65
2024/01/06 01:42:21;;;;;;;8.33;4.80;;;4.80;99.90;;;;;;4989582;28;20885;-65
2024/01/06 01:44:48;;;;;;;13.03;5.07;;;4.80;99.90;;;;;;4989140;28;20909;-65
2024/01/06 01:47:18;;;;;;;7.03;5.27;;;4.90;99.90;;;;;;4989996;28;23284;-65
2024/01/06 01:49:47;;;;;;;7.17;4.20;;;4.90;99.90;;;;;;4990998;28;20481;-65
2024/01/06 01:52:15;;;;;;;8.60;4.87;;;5.00;99.90;;;;;;4990824;28;20482;-64
2024/01/06 01:54:43;;;;;;;17.40;6.53;;;5.00;99.90;;;;;;4990914;28;20489;-64
2024/01/06 01:57:11;;;;;;;9.63;6.03;;;5.10;99.90;;;;;;4990522;28;20485;-64
2024/01/06 01:59:38;;;;;;;15.37;5.47;;;5.30;99.90;;;;;;4992254;28;20799;-64
2024/01/06 02:02:05;;;;;;;6.20;4.93;;;5.40;99.90;;;;;;4990997;28;20485;-65
2024/01/06 02:04:32;;;;;;;13.63;5.90;;;;;;;;;;4990036;28;20724;-64
2024/01/06 02:07:01;;;;;;;16.00;4.53;;;5.50;99.90;;;;;;4988946;28;20493;-64
2024/01/06 02:09:29;;;;;;;7.17;4.47;;;5.60;99.90;;;;;;4992367;28;20481;-65
2024/01/06 02:11:57;;;;;;;13.63;5.10;;;5.60;99.90;;;;;;4992468;28;20562;-64
2024/01/06 02:14:24;;;;;;;9.63;4.27;;;5.50;99.90;;;;;;4990805;28;20563;-64
2024/01/06 02:16:51;;;;;;;13.00;6.03;;;5.30;99.90;;;;;;4994547;28;20556;-64
2024/01/06 02:19:19;;;;;;;8.33;4.40;;;;;;;;;;4990874;28;20470;-65
2024/01/06 02:21:49;;;;;;;19.80;6.23;;;5.20;99.90;;;;;;4988800;28;20563;-64
2024/01/06 02:24:16;;;;;;;12.57;5.27;;;5.10;99.90;;;;;;4989180;28;20583;-64
2024/01/06 02:26:43;;;;;;;21.90;7.70;;;5.10;99.90;;;;;;4988971;28;20652;-65
2024/01/06 02:29:10;;;;;;;8.00;4.70;;;5.20;99.90;;;;;;4989887;28;20477;-65
2024/01/06 02:31:37;;;;;;;10.70;5.10;;;5.20;99.90;;;;;;4990345;28;20485;-64
2024/01/06 02:34:04;;;;;;;8.93;5.13;;;5.30;99.90;;;;;;4976215;28;21168;-64
2024/01/06 02:36:30;;;;;;;13.20;4.47;;;5.30;99.90;;;;;;4987881;28;20884;-65
2024/01/06 02:38:59;;;;;;;5.43;4.77;;;5.50;99.90;;;;;;4990965;28;20470;-64
2024/01/06 02:41:26;;;;;;;17.10;5.70;;;5.50;99.90;;;;;;4989982;28;20478;-64
2024/01/06 02:43:55;;;;;;;6.90;4.73;;;5.50;99.90;;;;;;4985401;28;20494;-64
2024/01/06 02:46:21;;;;;;;16.30;5.30;;;5.50;99.90;;;;;;4992641;28;20468;-65
2024/01/06 02:48:48;;;;;;;8.20;6.00;;;5.40;99.90;;;;;;4989130;28;20916;-62
2024/01/06 02:51:15;;;;;;;11.03;5.70;;;5.40;99.90;;;;;;4982716;28;20490;-63
2024/01/06 02:53:42;;;;;;;14.53;5.90;;;5.40;99.90;;;;;;4985162;28;21066;-63
2024/01/06 02:56:12;;;;;;;34.03;6.40;;;5.40;99.90;;;;;;4984730;28;21232;-62
2024/01/06 02:58:39;;;;;;;14.90;5.43;;;5.40;99.90;;;;;;4980048;28;21229;-63
2024/01/06 03:01:06;;;;;;;10.20;4.10;;;5.50;99.90;;;;;;4985724;28;20636;-62
2024/01/06 03:03:33;;;;;;;4.87;3.87;;;5.50;99.90;;;;;;4983055;28;20713;-63
2024/01/06 03:06:00;;;;;;;13.83;4.50;;;5.70;99.90;;;;;;4983955;28;20556;-63
2024/01/06 03:08:27;;;;;;;6.80;3.40;;;5.70;99.90;;;;;;4986864;28;20901;-64
2024/01/06 03:10:53;;;;;;;6.90;3.77;;;5.80;99.90;;;;;;4993464;28;20545;-64
2024/01/06 03:13:22;;;;;;;10.93;5.10;;;;;;;;;;4986788;28;21197;-66
2024/01/06 03:15:49;;;;;;;15.67;5.00;;;5.90;99.90;;;;;;4996558;28;20958;-65
2024/01/06 03:18:16;;;;;;;8.97;4.10;;;5.90;99.90;;;;;;4996370;28;20932;-63
2024/01/06 03:20:43;;;;;;;18.47;5.00;;;5.90;99.90;;;;;;4990636;28;20485;-62
2024/01/06 03:23:09;;;;;;;13.70;4.23;;;6.00;99.90;;;;;;4987181;28;20483;-63
2024/01/06 03:25:36;;;;;;;7.90;4.10;;;6.00;99.90;;;;;;4993777;28;20482;-63
2024/01/06 03:28:03;;;;;;;18.23;5.17;;;6.00;99.90;;;;;;4995982;28;20477;-62
2024/01/06 03:30:32;;;;;;;27.43;5.07;;;6.00;99.90;;;;;;4993379;28;20485;-63
2024/01/06 03:32:59;;;;;;;7.47;4.80;;;6.00;99.90;;;;;;4990198;28;20485;-63
2024/01/06 03:35:26;;;;;;;8.23;3.73;;;6.00;99.90;;;;;;4993621;28;20489;-63
2024/01/06 03:37:53;;;;;;;8.93;4.40;;;6.00;99.90;;;;;;4995418;28;20482;-63
2024/01/06 03:40:19;;;;;;;10.53;4.10;;;6.00;99.90;;;;;;4995009;28;20571;-63
2024/01/06 03:42:46;;;;;;;3.13;2.80;;;6.00;99.90;;;;;;4991386;28;20485;-63
2024/01/06 03:45:13;;;;;;;7.30;4.30;;;6.00;99.90;;;;;;4993896;28;20690;-62
2024/01/06 03:47:41;;;;;;;11.90;5.03;;;6.00;99.90;;;;;;4994257;28;20567;-62
2024/01/06 03:50:09;;;;;;;33.87;5.40;;;6.00;99.90;;;;;;4993979;28;20489;-63
2024/01/06 03:52:36;;;;;;;6.07;3.40;;;6.00;99.90;;;;;;4995401;28;20547;-63
2024/01/06 03:55:03;;;;;;;38.47;5.43;;;5.90;99.90;;;;;;4984983;28;20983;-62
2024/01/06 03:57:29;;;;;;;6.67;3.83;;;5.90;99.90;;;;;;4995759;28;20489;-63
2024/01/06 03:59:56;;;;;;;10.43;5.13;;;5.90;99.90;;;;;;4995691;28;21025;-66
2024/01/06 04:02:23;;;;;;;15.03;4.47;;;6.00;99.90;;;;;;4991788;28;20473;-64
2024/01/06 04:04:52;;;;;;;9.07;4.33;;;6.00;99.90;;;;;;4979195;28;21047;-66
2024/01/06 04:07:18;;;;;;;8.60;4.20;;;6.00;99.90;;;;;;4983129;28;20491;-65
2024/01/06 04:09:46;;;;;;;17.53;5.20;;;6.00;99.90;;;;;;4967429;28;20748;-65
2024/01/06 04:12:13;;;;;;;7.60;3.90;;;6.00;99.90;;;;;;4974316;28;20491;-65
2024/01/06 04:14:40;;;;;;;8.17;4.50;;;6.00;99.90;;;;;;4975022;28;20498;-64
2024/01/06 04:17:07;;;;;;;13.20;3.97;;;6.00;99.90;;;;;;4971801;28;20981;-65
2024/01/06 04:19:34;;;;;;;9.67;4.30;;;6.00;99.90;;;;;;4967458;28;20742;-66
2024/01/06 04:22:02;;;;;;;16.53;4.50;;;6.10;99.90;;;;;;4972710;28;20858;-65
2024/01/06 04:24:30;;;;;;;11.53;4.60;;;6.00;99.90;;;;;;4967491;28;20491;-65
2024/01/06 04:26:57;;;;;;;4.73;4.20;;;6.10;99.90;;;;;;4969040;28;20476;-67
2024/01/06 04:29:23;;;;;;;55.00;7.10;;;6.10;99.90;;;;;;4971889;28;20915;-64
2024/01/06 04:31:51;;;;;;;8.73;5.73;;;;;;;;;;4972683;28;20486;-65
2024/01/06 04:34:18;;;;;;;6.97;5.13;;;6.10;99.90;;;;;;4973004;28;20490;-65
2024/01/06 04:36:44;;;;;;;30.00;5.03;;;6.10;99.90;;;;;;4967979;28;20934;-65
2024/01/06 04:39:13;;;;;;;9.67;5.00;;;6.10;99.90;;;;;;4975906;28;20486;-64
2024/01/06 04:41:40;;;;;;;6.73;4.60;;;6.20;99.90;;;;;;4995333;28;20671;-64
2024/01/06 04:44:07;;;;;;;14.17;4.43;;;6.20;99.90;;;;;;4979922;28;20924;-64
2024/01/06 04:46:34;;;;;;;4.13;3.73;;;6.20;99.90;;;;;;4971366;28;20545;-64
2024/01/06 04:49:01;;;;;;;6.20;4.20;;;6.20;99.90;;;;;;4974535;28;20520;-64
2024/01/06 04:51:28;;;;;;;12.50;4.97;;;6.20;99.90;;;;;;4982088;28;20486;-65
2024/01/06 04:53:55;;;;;;;8.20;5.07;;;6.20;99.90;;;;;;4990652;28;20937;-65
2024/01/06 04:56:23;;;;;;;8.23;4.67;;;6.10;99.90;;;;;;4988941;28;20532;-64
2024/01/06 04:58:50;;;;;;;5.83;4.23;;;6.20;99.90;;;;;;4969759;28;20585;-66
2024/01/06 05:01:17;;;;;;;8.73;4.63;;;6.10;99.90;;;;;;4971417;28;20833;-65
2024/01/06 05:03:43;;;;;;;42.67;6.80;;;6.00;99.90;;;;;;4968660;28;20483;-64
2024/01/06 05:06:10;;;;;;;6.60;4.37;;;6.10;99.90;;;;;;4970114;28;20940;-64
2024/01/06 05:08:41;;;;;;;12.63;5.17;;;6.10;99.90;;;;;;4973113;28;20483;-64
2024/01/06 05:11:08;;;;;;;8.00;2.80;;;6.10;99.90;;;;;;4965609;28;20482;-67
2024/01/06 05:13:36;;;;;;;8.17;5.13;;;6.00;99.90;;;;;;4962026;28;20489;-65
2024/01/06 05:16:03;;;;;;;8.90;5.60;;;6.00;99.90;;;;;;4970405;28;20924;-64
2024/01/06 05:18:31;;;;;;;15.63;5.00;;;6.00;99.90;;;;;;4975251;28;20490;-64
2024/01/06 05:20:58;;;;;;;20.47;6.87;;;6.00;99.90;;;;;;4979939;28;20529;-65
2024/01/06 05:23:25;;;;;;;6.63;4.13;;;6.10;99.90;;;;;;4972126;28;20561;-64
2024/01/06 05:25:52;;;;;;;12.03;5.07;;;6.00;99.90;;;;;;4970271;28;21032;-65
2024/01/06 05:28:19;;;;;;;21.13;6.50;;;6.00;99.90;;;;;;4970852;28;20494;-64
2024/01/06 05:30:47;;;;;;;9.90;4.50;;;6.00;99.90;;;;;;4973168;28;20823;-64
2024/01/06 05:33:15;;;;;;;8.77;5.03;;;;;;;;;;4977411;28;20485;-67
2024/01/06 05:35:42;;;;;;;8.53;5.00;;;6.10;99.90;;;;;;4979043;28;20564;-64
2024/01/06 05:38:09;;;;;;;39.47;6.90;;;6.00;99.90;;;;;;4973692;28;20495;-62
2024/01/06 05:40:35;;;;;;;7.47;5.17;;;6.00;99.90;;;;;;4988244;28;20482;-61
2024/01/06 05:43:02;;;;;;;13.63;6.03;;;6.00;99.90;;;;;;4973709;28;20545;-62
2024/01/06 05:45:29;;;;;;;15.43;5.17;;;6.00;99.90;;;;;;4976559;28;20474;-62
2024/01/06 05:47:58;;;;;;;15.17;5.57;;;6.00;99.90;;;;;;4994992;28;20495;-62
2024/01/06 05:50:24;;;;;;;6.50;4.90;;;6.00;99.90;;;;;;4996555;28;20712;-62
2024/01/06 05:52:52;;;;;;;16.10;6.07;;;6.00;99.90;;;;;;4991046;28;20494;-62
2024/01/06 05:55:20;;;;;;;11.53;5.60;;;6.00;99.90;;;;;;4975888;28;20493;-62
2024/01/06 05:57:47;;;;;;;13.00;5.50;;;6.00;99.90;;;;;;4979838;28;20494;-62
2024/01/06 06:00:14;;;;;;;12.57;4.43;;;6.00;99.90;;;;;;4975900;28;20665;-64
2024/01/06 06:02:41;;;;;;;13.00;4.63;;;5.90;99.90;;;;;;4970323;28;21199;-61
2024/01/06 06:05:10;;;;;;;5.47;4.27;;;5.90;99.90;;;;;;4973136;28;20865;-61
2024/01/06 06:07:38;;;;;;;11.07;6.67;;;5.90;99.90;;;;;;4978220;28;20810;-62
2024/01/06 06:10:08;;;;;;;16.17;8.57;;;5.80;99.90;;;;;;4975931;28;20978;-63
2024/01/06 06:12:35;;;;;;;26.60;7.43;;;5.80;99.90;;;;;;4975266;28;20485;-62
2024/01/06 06:15:03;;;;;;;12.53;5.10;;;5.80;99.90;;;;;;4973699;28;20989;-62
2024/01/06 06:17:30;;;;;;;15.73;6.70;;;5.90;99.90;;;;;;4976523;28;20507;-63
2024/01/06 06:19:58;;;;;;;15.60;7.00;;;5.90;99.90;;;;;;4976767;28;20548;-64
2024/01/06 06:22:30;;;;;;;11.13;6.70;;;5.80;99.90;;;;;;4974650;28;21315;-64
2024/01/06 06:24:57;;;;;;;10.10;6.40;;;5.80;99.90;;;;;;4969390;28;20482;-64
2024/01/06 06:27:24;;;;;;;10.33;5.70;;;5.90;99.90;;;;;;4978106;28;20505;-65
2024/01/06 06:29:51;;;;;;;10.07;6.63;;;6.00;99.90;;;;;;4969965;28;20482;-65
2024/01/06 06:32:18;;;;;;;10.40;6.20;;;5.90;99.90;;;;;;4973763;28;20545;-65
2024/01/06 06:34:44;;;;;;;13.23;5.80;;;6.00;99.90;;;;;;4976649;28;20545;-64
2024/01/06 06:37:11;;;;;;;14.73;6.70;;;6.00;99.90;;;;;;4975009;28;20478;-64
2024/01/06 06:39:40;;;;;;;20.30;7.20;;;6.00;99.90;;;;;;4979060;28;20482;-65
2024/01/06 06:42:07;;;;;;;15.20;7.60;;;6.10;99.90;;;;;;4973594;28;20482;-65
2024/01/06 06:44:34;;;;;;;8.27;5.90;;;6.10;99.90;;;;;;4972110;28;20561;-64
2024/01/06 06:47:01;;;;;;;29.67;9.13;;;;;;;;;;4973092;28;20843;-65
2024/01/06 06:49:29;;;;;;;10.80;7.47;;;6.10;99.90;;;;;;4974021;28;20489;-65
2024/01/06 06:51:56;;;;;;;9.77;5.67;;;6.10;99.90;;;;;;4975548;28;20486;-64
2024/01/06 06:54:23;;;;;;;18.43;5.93;;;6.10;99.90;;;;;;4975353;28;20470;-64
2024/01/06 06:56:51;;;;;;;9.33;6.20;;;6.10;99.90;;;;;;4973101;28;20482;-64
2024/01/06 06:59:18;;;;;;;13.07;6.07;;;6.20;99.90;;;;;;4975293;28;21236;-64
2024/01/06 07:01:45;;;;;;;9.57;5.20;;;6.20;99.90;;;;;;4978303;28;20486;-64
2024/01/06 07:04:11;;;;;;;9.63;5.30;;;6.20;99.90;;;;;;4969337;28;20953;-65
2024/01/06 07:06:39;;;;;;;6.73;5.10;;;6.20;99.90;;;;;;4949679;28;20546;-66
2024/01/06 07:09:06;;;;;;;11.33;6.03;;;6.20;99.90;;;;;;4972704;28;20486;-64
2024/01/06 07:11:33;;;;;;;13.23;6.00;;;6.20;99.90;;;;;;4953657;28;20828;-65
2024/01/06 07:14:01;;;;;;;11.60;6.00;;;6.30;99.90;;;;;;4973950;28;20931;-65
2024/01/06 07:16:28;;;;;;;9.23;6.13;;;6.30;99.90;;;;;;4971642;28;20471;-65
2024/01/06 07:18:55;;;;;;;10.17;5.83;;;6.40;99.90;;;;;;4977349;28;20483;-65
2024/01/06 07:21:23;;;;;;;12.70;6.10;;;6.40;99.90;;;;;;4968148;28;20535;-65
2024/01/06 07:23:50;;;;;;;7.57;5.30;;;;;;;;;;4963245;28;20495;-64
2024/01/06 07:26:17;;;;;;;11.47;5.60;;;6.40;99.90;;;;;;4960603;28;20851;-65
2024/01/06 07:28:44;;;;;;;11.80;5.37;;;6.50;99.90;;;;;;4969516;28;20545;-63
2024/01/06 07:31:17;;;;;;;7.70;5.17;;;6.40;99.90;;;;;;4974634;28;20487;-65
2024/01/06 07:33:44;;;;;;;12.67;5.00;;;6.40;99.90;;;;;;4974921;28;20482;-62
2024/01/06 07:36:11;;;;;;;10.33;5.73;;;6.30;99.90;;;;;;4973641;28;20486;-63
2024/01/06 07:38:38;;;;;;;6.00;4.33;;;6.30;99.90;;;;;;4975908;28;20486;-63
2024/01/06 07:41:05;;;;;;;8.30;5.20;;;6.40;99.90;;;;;;4972905;28;20473;-63
2024/01/06 07:43:32;;;;;;;7.63;5.40;;;;;;;;;;4972391;28;20808;-62
2024/01/06 07:45:59;;;;;;;8.87;6.27;;;6.40;99.90;;;;;;4968804;28;20569;-62
2024/01/06 07:48:28;;;;;;;6.27;4.97;;;6.30;99.90;;;;;;4968408;28;20550;-62
2024/01/06 07:50:55;;;;;;;9.90;5.13;;;;;;;;;;4974006;28;20486;-63
2024/01/06 07:53:22;;;;;;;7.13;5.53;;;6.30;99.90;;;;;;4973154;28;21515;-61
2024/01/06 07:55:49;;;;;;;31.93;6.97;;;6.30;99.90;;;;;;4971217;28;20874;-62
2024/01/06 07:58:16;;;;;;;17.90;6.77;;;6.40;99.90;;;;;;4953167;28;20475;-64
2024/01/06 08:00:43;;;;;;;14.80;5.83;;;6.40;99.90;;;;;;4971182;28;21021;-64
2024/01/06 08:03:11;;;;;;;15.10;8.07;;;6.40;99.90;;;;;;4974785;28;20931;-64
2024/01/06 08:05:39;;;;;;;7.17;6.17;;;6.40;99.90;;;;;;4979802;28;20491;-64
2024/01/06 08:08:07;;;;;;;10.67;6.07;;;6.30;99.90;;;;;;4984252;28;21347;-65
2024/01/06 08:10:33;;;;;;;18.80;7.87;;;6.40;99.90;;;;;;4955444;28;21260;-64
2024/01/06 08:13:01;;;;;;;11.27;6.97;;;6.40;99.90;;;;;;4974512;28;20497;-64
2024/01/06 08:15:27;;;;;;;15.10;8.10;;;6.30;99.90;;;;;;4994781;28;20737;-64
2024/01/06 08:17:54;;;;;;;13.37;6.60;;;6.30;99.90;;;;;;4993525;28;20482;-64
2024/01/06 08:20:21;;;;;;;22.63;8.23;;;6.30;99.90;;;;;;4995893;28;20485;-64
2024/01/06 08:22:49;;;;;;;13.10;8.13;;;6.30;99.90;;;;;;4984158;28;20545;-64
2024/01/06 08:25:17;;;;;;;9.93;6.87;;;6.40;99.90;;;;;;5003460;28;20536;-64
2024/01/06 08:27:44;;;;;;;12.30;7.50;;;6.40;99.90;;;;;;4983711;28;20909;-65
2024/01/06 08:30:12;;;;;;;40.53;8.93;;;6.50;99.90;;;;;;4992252;28;20559;-64
2024/01/06 08:32:39;;;;;;;13.80;7.73;;;6.50;99.90;;;;;;4984746;28;20487;-65
2024/01/06 08:35:07;;;;;;;17.83;8.30;;;6.40;99.90;;;;;;4997060;28;20862;-65
2024/01/06 08:37:34;;;;;;;17.03;8.03;;;6.50;99.90;;;;;;4989070;28;20485;-64
2024/01/06 08:40:03;;;;;;;23.13;9.27;;;6.50;99.90;;;;;;4994438;28;20481;-63
2024/01/06 08:42:30;;;;;;;13.83;8.33;;;6.50;99.90;;;;;;4995719;28;20590;-63
2024/01/06 08:44:57;;;;;;;19.90;8.60;;;6.60;99.90;;;;;;4985925;28;20494;-63
2024/01/06 08:47:24;;;;;;;14.10;8.37;;;6.60;99.90;;;;;;4995805;28;20568;-63
2024/01/06 08:49:51;;;;;;;20.97;8.47;;;6.60;99.90;;;;;;4993462;28;20563;-62
2024/01/06 08:52:17;;;;;;;34.53;9.27;;;6.60;99.90;;;;;;4991867;28;20473;-63
2024/01/06 08:54:44;;;;;;;15.00;9.20;;;6.60;99.90;;;;;;4996648;28;20543;-63
2024/01/06 08:57:13;;;;;;;10.47;7.40;;;6.60;99.90;;;;;;4995087;28;20905;-63
2024/01/06 08:59:40;;;;;;;12.90;7.47;;;6.60;99.90;;;;;;4966724;28;20553;-63
2024/01/06 09:02:07;;;;;;;17.10;9.67;;;6.60;99.90;;;;;;4997557;28;20485;-63
2024/01/06 09:04:34;;;;;;;25.70;9.37;;;;;;;;;;4999004;28;21027;-63
2024/01/06 09:07:01;;;;;;;16.20;8.70;;;6.60;99.90;;;;;;4991371;28;20537;-63
2024/01/06 09:09:29;;;;;;;19.07;9.93;;;6.40;99.90;;;;;;4973558;28;20740;-63
2024/01/06 09:11:58;;;;;;;18.30;10.33;;;6.40;99.90;;;;;;4963994;28;21042;-63
2024/01/06 09:14:26;;;;;;;14.93;8.50;;;6.40;99.90;;;;;;4975842;28;20565;-63
2024/01/06 09:16:53;;;;;;;12.50;7.90;;;6.40;99.90;;;;;;4980065;28;21068;-62
2024/01/06 09:19:21;;;;;;;32.80;9.93;;;6.50;99.90;;;;;;4978071;28;20820;-63
2024/01/06 09:21:48;;;;;;;13.60;9.33;;;6.60;99.90;;;;;;4976586;28;20937;-62
2024/01/06 09:24:15;;;;;;;20.43;10.13;;;6.60;99.90;;;;;;4973233;28;20470;-63
2024/01/06 09:26:42;;;;;;;13.77;7.00;;;6.70;99.90;;;;;;4985009;28;20478;-63
2024/01/06 09:29:09;;;;;;;37.30;9.33;;;6.70;99.90;;;;;;4982198;28;20897;-62
2024/01/06 09:31:37;;;;;;;20.10;9.77;;;6.70;99.90;;;;;;4993012;28;20478;-63
2024/01/06 09:34:04;;;;;;;20.23;8.90;;;6.70;99.90;;;;;;4987802;28;20734;-63
2024/01/06 09:36:32;;;;;;;11.27;8.60;;;6.70;99.90;;;;;;5001560;28;20504;-63
2024/01/06 09:38:59;;;;;;;17.50;9.80;;;6.70;99.90;;;;;;4988550;28;20486;-63
2024/01/06 09:41:26;;;;;;;14.40;9.17;;;6.70;99.90;;;;;;5004447;28;20849;-62
2024/01/06 09:43:53;;;;;;;17.03;8.90;;;6.70;99.90;;;;;;4988433;28;20528;-62
2024/01/06 09:46:26;;;;;;;20.57;11.37;;;6.70;99.90;;;;;;4999841;28;20896;-62
2024/01/06 09:48:55;;;;;;;18.57;10.63;;;6.70;99.90;;;;;;4993639;28;20548;-64
2024/01/06 09:51:23;;;;;;;23.30;9.07;;;6.70;99.90;;;;;;4992029;28;20478;-64
2024/01/06 09:53:53;;;;;;;17.53;11.40;;;6.80;99.90;;;;;;4969935;28;20499;-64
2024/01/06 09:56:21;;;;;;;15.00;9.63;;;6.80;99.90;;;;;;4976677;28;20493;-64
2024/01/06 09:58:48;;;;;;;14.10;9.70;;;6.90;99.90;;;;;;4974650;28;20482;-64
2024/01/06 10:01:16;;;;;;;21.67;11.37;;;6.90;99.90;;;;;;4974272;28;20474;-64
2024/01/06 10:03:43;;;;;;;16.07;10.33;;;6.90;99.90;;;;;;4971072;28;20491;-64
2024/01/06 10:06:11;;;;;;;20.30;9.20;;;6.90;99.90;;;;;;4972589;28;20541;-65
2024/01/06 10:08:40;;;;;;;10.60;8.30;;;7.00;99.90;;;;;;4978624;28;20556;-65
2024/01/06 10:11:07;;;;;;;14.37;9.33;;;7.00;99.90;;;;;;4971883;28;20507;-64
2024/01/06 10:13:34;;;;;;;16.17;11.60;;;7.00;99.90;;;;;;4966658;28;20491;-65
2024/01/06 10:16:02;;;;;;;19.17;11.60;;;6.90;99.90;;;;;;4972959;28;20607;-65
2024/01/06 10:18:29;;;;;;;20.67;11.43;;;7.00;99.90;;;;;;4985449;28;20492;-65
2024/01/06 10:20:56;;;;;;;13.80;8.17;;;6.90;99.90;;;;;;4984251;28;20486;-66
2024/01/06 10:23:27;;;;;;;15.33;7.23;;;7.00;99.90;;;;;;4968473;28;20863;-65
2024/01/06 10:25:55;;;;;;;20.23;9.03;;;7.00;99.90;;;;;;4974043;28;20486;-65
2024/01/06 10:28:22;;;;;;;13.30;8.73;;;6.90;99.90;;;;;;4953619;28;20475;-65
2024/01/06 10:30:50;;;;;;;23.93;9.30;;;7.00;99.90;;;;;;4952726;28;20471;-65
2024/01/06 10:33:17;;;;;;;13.03;7.70;;;7.00;99.90;;;;;;4951692;28;20904;-65
2024/01/06 10:35:45;;;;;;;9.43;6.77;;;7.00;99.90;;;;;;4972772;28;20994;-64
2024/01/06 10:38:12;;;;;;;16.33;9.50;;;7.10;99.90;;;;;;4974368;28;20541;-65
2024/01/06 10:40:41;;;;;;;10.93;8.07;;;7.10;99.90;;;;;;4973191;28;20522;-64
2024/01/06 10:43:09;;;;;;;13.50;10.37;;;7.10;99.90;;;;;;4975164;28;20824;-65
2024/01/06 10:45:37;;;;;;;19.20;9.80;;;7.00;99.90;;;;;;4970255;28;21059;-64
2024/01/06 10:48:06;;;;;;;19.80;9.37;;;;;;;;;;4966405;28;20954;-64
2024/01/06 10:50:34;;;;;;;14.20;9.00;;;7.00;99.90;;;;;;4973918;28;20537;-64
2024/01/06 10:53:03;;;;;;;17.63;10.03;;;7.00;99.90;;;;;;4950431;28;20490;-65
2024/01/06 10:55:30;;;;;;;14.20;8.67;;;;;;;;;;4974388;28;20515;-64
2024/01/06 10:58:00;;;;;;;13.10;9.10;;;7.10;99.90;;;;;;4976035;28;20487;-65
2024/01/06 11:00:27;;;;;;;13.80;7.23;;;7.20;99.90;;;;;;4958575;28;20471;-62
2024/01/06 11:02:55;;;;;;;18.40;8.80;;;;;;;;;;4991440;28;20474;-63
2024/01/06 11:05:23;;;;;;;14.57;7.77;;;7.40;99.90;;;;;;4994326;28;20482;-62
2024/01/06 11:07:52;;;;;;;11.00;7.50;;;7.40;99.90;;;;;;4999272;28;20543;-63
2024/01/06 11:10:20;;;;;;;16.90;8.67;;;7.60;99.90;;;;;;4997446;28;20488;-62
2024/01/06 11:13:06;;;;;;;9.97;6.00;;;7.60;99.90;;;;;;4996533;28;20891;-63
2024/01/06 11:15:42;;;;;;;20.33;6.13;;;7.60;99.90;;;;;;4980432;28;21046;-63
2024/01/06 11:18:09;;;;;;;7.33;5.80;;;7.60;99.90;;;;;;4992775;28;20493;-63
2024/01/06 11:20:36;;;;;;;8.57;6.50;;;7.70;99.90;;;;;;4994554;28;20531;-63
2024/01/06 11:23:21;;;;;;;20.67;7.50;;;7.60;99.90;;;;;;4997040;28;20919;-63
2024/01/06 11:25:47;;;;;;;6.53;5.63;;;7.60;99.90;;;;;;4990718;28;20505;-62
2024/01/06 11:28:17;;;;;;;10.70;6.10;;;7.60;99.90;;;;;;4997135;28;20478;-62
2024/01/06 11:30:46;;;;;;;16.70;5.90;;;7.70;99.90;;;;;;4985448;28;20513;-63
2024/01/06 11:33:14;;;;;;;15.13;6.47;;;7.80;99.90;;;;;;4995437;28;20477;-63
2024/01/06 11:35:41;;;;;;;10.53;6.53;;;7.70;99.90;;;;;;4985306;28;20859;-63
2024/01/06 11:38:08;;;;;;;8.83;6.00;;;7.80;99.90;;;;;;4994162;28;20481;-63
2024/01/06 11:40:37;;;;;;;11.90;7.07;;;7.80;99.90;;;;;;4994946;28;20544;-63
2024/01/06 11:43:06;;;;;;;32.30;7.33;;;7.80;99.90;;;;;;4992735;28;20479;-63
2024/01/06 11:45:34;;;;;;;12.73;6.10;;;7.80;99.90;;;;;;4996970;28;20478;-63
2024/01/06 11:48:04;;;;;;;12.03;6.17;;;7.80;99.90;;;;;;4977597;28;20473;-63
2024/01/06 11:50:32;;;;;;;15.67;7.73;;;7.80;99.90;;;;;;4984947;28;20528;-63
2024/01/06 11:53:00;;;;;;;24.73;6.40;;;7.80;99.90;;;;;;4976931;28;21151;-63
2024/01/06 11:55:29;;;;;;;12.07;6.30;;;7.80;99.90;;;;;;4998707;28;20935;-63
2024/01/06 11:57:57;;;;;;;11.10;6.07;;;7.80;99.90;;;;;;4994165;28;21477;-63
2024/01/06 12:00:24;;;;;;;10.53;7.00;;;7.90;99.90;;;;;;4994445;28;20571;-63
2024/01/06 12:02:56;;;;;;;6.17;4.57;;;7.80;99.90;;;;;;4995392;28;20539;-63
2024/01/06 12:05:26;;;;;;;11.83;6.90;;;7.80;99.90;;;;;;4990787;28;20977;-63
2024/01/06 12:07:57;;;;;;;11.07;5.10;;;7.80;99.90;;;;;;4992236;28;20790;-64
2024/01/06 12:10:29;;;;;;;15.73;6.17;;;7.90;99.90;;;;;;4984001;28;20929;-63
2024/01/06 12:12:58;;;;;;;9.43;5.97;;;7.90;99.90;;;;;;4972685;28;20490;-63
2024/01/06 12:15:25;;;;;;;16.10;5.93;;;7.90;99.90;;;;;;4971737;28;20486;-63
2024/01/06 12:17:52;;;;;;;12.70;5.67;;;8.00;99.90;;;;;;4973685;28;20466;-63
2024/01/06 12:20:19;;;;;;;12.73;7.33;;;8.10;99.90;;;;;;4971651;28;20489;-63
2024/01/06 12:22:47;;;;;;;7.40;5.60;;;8.10;99.90;;;;;;4973060;28;20580;-63
2024/01/06 12:25:16;;;;;;;11.13;5.00;;;8.20;99.90;;;;;;4974577;28;20714;-62
2024/01/06 12:27:44;;;;;;;7.73;5.43;;;8.10;99.90;;;;;;4976388;28;20486;-63
2024/01/06 12:30:15;;;;;;;7.07;5.30;;;8.20;99.90;;;;;;4991704;28;20492;-63
2024/01/06 12:32:43;;;;;;;12.30;5.70;;;8.30;99.90;;;;;;4993576;28;20513;-63
2024/01/06 12:35:11;;;;;;;6.60;5.00;;;8.30;99.90;;;;;;4991229;28;20786;-62
2024/01/06 12:37:38;;;;;;;6.40;5.03;;;8.40;99.90;;;;;;5003078;28;20543;-62
2024/01/06 12:40:10;;;;;;;6.40;4.53;;;8.40;99.90;;;;;;4987928;28;20610;-63
2024/01/06 12:42:37;;;;;;;6.83;5.23;;;8.40;99.90;;;;;;4988467;28;20518;-63
2024/01/06 12:45:05;;;;;;;26.27;6.67;;;8.50;99.90;;;;;;4983509;28;20480;-63
2024/01/06 12:47:32;;;;;;;12.00;7.63;;;8.60;99.90;;;;;;4993224;28;20548;-63
2024/01/06 12:49:59;;;;;;;8.23;5.37;;;8.60;99.90;;;;;;4992688;28;20486;-62
2024/01/06 12:52:26;;;;;;;16.07;5.30;;;8.60;99.90;;;;;;4991209;28;20542;-63
2024/01/06 12:54:53;;;;;;;5.03;4.53;;;8.60;99.90;;;;;;4996931;28;20489;-63
2024/01/06 12:57:21;;;;;;;10.03;5.40;;;8.60;99.90;;;;;;4996850;28;20485;-63
2024/01/06 12:59:48;;;;;;;8.50;4.43;;;8.60;99.90;;;;;;4994887;28;20489;-63
2024/01/06 13:02:15;;;;;;;15.43;5.00;;;8.60;99.90;;;;;;4996493;28;20920;-63
2024/01/06 13:04:43;;;;;;;7.70;5.00;;;8.60;99.90;;;;;;4993263;28;20485;-63
2024/01/06 13:07:10;;;;;;;8.60;4.60;;;8.60;99.90;;;;;;5000211;28;21003;-63
2024/01/06 13:09:37;;;;;;;8.97;5.47;;;8.60;99.90;;;;;;4987342;28;20901;-63
2024/01/06 13:12:06;;;;;;;5.23;4.10;;;8.50;99.90;;;;;;4988180;28;20487;-63
2024/01/06 13:14:34;;;;;;;6.33;4.20;;;8.50;99.90;;;;;;4982566;28;21008;-63
2024/01/06 13:17:01;;;;;;;6.47;4.50;;;8.50;99.90;;;;;;4989209;28;20504;-63
2024/01/06 13:19:28;;;;;;;16.43;5.30;;;8.50;99.90;;;;;;4977599;28;20483;-63
2024/01/06 13:21:54;;;;;;;4.67;4.07;;;8.60;99.90;;;;;;4978433;28;20593;-63
2024/01/06 13:24:22;;;;;;;6.50;4.83;;;8.70;99.90;;;;;;4964159;28;20543;-63
2024/01/06 13:26:49;;;;;;;24.67;5.30;;;8.80;99.90;;;;;;4985847;28;20576;-63
2024/01/06 13:29:17;;;;;;;6.40;3.63;;;8.80;99.90;;;;;;4977254;28;20531;-63
2024/01/06 13:31:46;;;;;;;6.00;3.87;;;8.90;99.90;;;;;;4989485;28;20481;-63
2024/01/06 13:34:13;;;;;;;8.60;4.80;;;8.90;99.90;;;;;;5004755;28;20939;-63
2024/01/06 13:36:41;;;;;;;4.17;3.20;;;9.00;99.90;;;;;;4992657;28;20552;-63
2024/01/06 13:39:07;;;;;;;7.50;4.03;;;8.90;99.90;;;;;;4970744;28;20533;-62
2024/01/06 13:41:34;;;;;;;7.37;4.00;;;8.90;99.90;;;;;;4972594;28;20512;-63
2024/01/06 13:44:01;;;;;;;4.30;3.90;;;8.90;99.90;;;;;;4979617;28;21071;-62
2024/01/06 13:46:28;;;;;;;6.50;3.80;;;8.90;99.90;;;;;;4977485;28;20494;-63
2024/01/06 13:48:56;;;;;;;4.27;3.70;;;8.80;99.90;;;;;;4950362;28;20548;-64
2024/01/06 13:51:24;;;;;;;5.13;4.60;;;8.80;99.90;;;;;;4988200;28;20822;-65
2024/01/06 13:53:52;;;;;;;13.13;5.20;;;8.80;99.90;;;;;;4996448;28;20985;-64
2024/01/06 13:56:18;;;;;;;6.97;4.50;;;8.80;99.90;;;;;;4987478;28;20754;-66